sensor_id;sensor_type;location;lat;lon;timestamp;P1;durP1;ratioP1;P2;durP2;ratioP2
77148;SDS011;66122;47.130;16.844;2023-06-19T00:04:16;0.47;;;0.40;;
77148;SDS011;66122;47.130;16.844;2023-06-19T00:14:19;3.20;;;0.60;;
77148;SDS011;66122;47.130;16.844;2023-06-19T00:24:21;0.50;;;0.40;;
77148;SDS011;66122;47.130;16.844;2023-06-19T00:34:24;0.40;;;0.30;;
77148;SDS011;66122;47.130;16.844;2023-06-19T00:44:26;0.30;;;0.20;;
77148;SDS011;66122;47.130;16.844;2023-06-19T00:54:30;0.40;;;0.30;;
77148;SDS011;66122;47.130;16.844;2023-06-19T01:04:35;0.60;;;0.33;;
77148;SDS011;66122;47.130;16.844;2023-06-19T01:14:39;0.40;;;0.30;;
77148;SDS011;66122;47.130;16.844;2023-06-19T01:24:54;0.30;;;0.13;;
77148;SDS011;66122;47.130;16.844;2023-06-19T01:34:57;0.40;;;0.20;;
77148;SDS011;66122;47.130;16.844;2023-06-19T01:45:01;0.50;;;0.30;;
77148;SDS011;66122;47.130;16.844;2023-06-19T01:55:05;0.30;;;0.20;;
77148;SDS011;66122;47.130;16.844;2023-06-19T02:05:09;0.30;;;0.20;;
77148;SDS011;66122;47.130;16.844;2023-06-19T02:15:12;0.20;;;0.10;;
77148;SDS011;66122;47.130;16.844;2023-06-19T02:25:14;0.33;;;0.20;;
77148;SDS011;66122;47.130;16.844;2023-06-19T02:35:18;0.50;;;0.40;;
77148;SDS011;66122;47.130;16.844;2023-06-19T02:45:20;0.20;;;0.10;;
77148;SDS011;66122;47.130;16.844;2023-06-19T02:55:23;0.63;;;0.50;;
77148;SDS011;66122;47.130;16.844;2023-06-19T03:05:25;0.85;;;0.63;;
77148;SDS011;66122;47.130;16.844;2023-06-19T03:15:30;0.57;;;0.30;;
77148;SDS011;66122;47.130;16.844;2023-06-19T03:25:34;0.30;;;0.20;;
77148;SDS011;66122;47.130;16.844;2023-06-19T03:35:38;0.20;;;0.10;;
77148;SDS011;66122;47.130;16.844;2023-06-19T03:45:42;0.20;;;0.10;;
77148;SDS011;66122;47.130;16.844;2023-06-19T03:55:45;0.30;;;0.20;;
77148;SDS011;66122;47.130;16.844;2023-06-19T04:05:48;0.30;;;0.20;;
77148;SDS011;66122;47.130;16.844;2023-06-19T04:15:51;0.30;;;0.10;;
77148;SDS011;66122;47.130;16.844;2023-06-19T04:25:54;1.60;;;1.50;;
77148;SDS011;66122;47.130;16.844;2023-06-19T04:35:57;0.63;;;0.50;;
77148;SDS011;66122;47.130;16.844;2023-06-19T04:45:59;0.32;;;0.20;;
77148;SDS011;66122;47.130;16.844;2023-06-19T04:56:02;0.50;;;0.40;;
77148;SDS011;66122;47.130;16.844;2023-06-19T05:06:04;0.37;;;0.20;;
77148;SDS011;66122;47.130;16.844;2023-06-19T05:16:07;0.40;;;0.20;;
77148;SDS011;66122;47.130;16.844;2023-06-19T05:26:10;0.40;;;0.30;;
77148;SDS011;66122;47.130;16.844;2023-06-19T05:36:12;2.10;;;0.70;;
77148;SDS011;66122;47.130;16.844;2023-06-19T05:46:15;0.50;;;0.30;;
77148;SDS011;66122;47.130;16.844;2023-06-19T05:56:17;0.70;;;0.50;;
77148;SDS011;66122;47.130;16.844;2023-06-19T06:06:20;0.60;;;0.40;;
77148;SDS011;66122;47.130;16.844;2023-06-19T06:16:23;1.07;;;0.97;;
77148;SDS011;66122;47.130;16.844;2023-06-19T06:26:25;1.10;;;0.90;;
77148;SDS011;66122;47.130;16.844;2023-06-19T06:36:30;1.00;;;0.90;;
77148;SDS011;66122;47.130;16.844;2023-06-19T06:46:36;0.83;;;0.60;;
77148;SDS011;66122;47.130;16.844;2023-06-19T06:56:38;0.50;;;0.20;;
77148;SDS011;66122;47.130;16.844;2023-06-19T07:06:41;0.60;;;0.40;;
77148;SDS011;66122;47.130;16.844;2023-06-19T07:16:44;0.53;;;0.37;;
77148;SDS011;66122;47.130;16.844;2023-06-19T07:26:47;1.03;;;0.70;;
77148;SDS011;66122;47.130;16.844;2023-06-19T07:36:50;0.98;;;0.88;;
77148;SDS011;66122;47.130;16.844;2023-06-19T07:46:53;0.60;;;0.50;;
77148;SDS011;66122;47.130;16.844;2023-06-19T07:56:55;1.20;;;0.73;;
77148;SDS011;66122;47.130;16.844;2023-06-19T08:06:58;0.53;;;0.40;;
77148;SDS011;66122;47.130;16.844;2023-06-19T08:17:00;1.00;;;0.50;;
77148;SDS011;66122;47.130;16.844;2023-06-19T08:27:03;0.77;;;0.65;;
77148;SDS011;66122;47.130;16.844;2023-06-19T08:37:06;1.47;;;1.37;;
77148;SDS011;66122;47.130;16.844;2023-06-19T08:47:09;0.80;;;0.53;;
77148;SDS011;66122;47.130;16.844;2023-06-19T08:57:12;1.10;;;0.85;;
77148;SDS011;66122;47.130;16.844;2023-06-19T09:07:15;1.07;;;0.77;;
77148;SDS011;66122;47.130;16.844;2023-06-19T09:17:20;0.97;;;0.90;;
77148;SDS011;66122;47.130;16.844;2023-06-19T09:27:31;1.20;;;1.08;;
77148;SDS011;66122;47.130;16.844;2023-06-19T09:37:35;2.20;;;1.17;;
77148;SDS011;66122;47.130;16.844;2023-06-19T09:47:44;0.80;;;0.70;;
77148;SDS011;66122;47.130;16.844;2023-06-19T09:57:51;0.90;;;0.80;;
77148;SDS011;66122;47.130;16.844;2023-06-19T10:07:55;1.20;;;0.83;;
77148;SDS011;66122;47.130;16.844;2023-06-19T10:18:05;1.65;;;0.85;;
77148;SDS011;66122;47.130;16.844;2023-06-19T10:28:17;1.70;;;1.23;;
77148;SDS011;66122;47.130;16.844;2023-06-19T10:38:21;1.37;;;1.27;;
77148;SDS011;66122;47.130;16.844;2023-06-19T10:48:24;1.08;;;0.90;;
77148;SDS011;66122;47.130;16.844;2023-06-19T10:58:28;1.03;;;0.90;;
77148;SDS011;66122;47.130;16.844;2023-06-19T11:08:31;1.60;;;1.50;;
77148;SDS011;66122;47.130;16.844;2023-06-19T11:18:34;4.50;;;1.13;;
77148;SDS011;66122;47.130;16.844;2023-06-19T11:28:36;3.10;;;1.83;;
77148;SDS011;66122;47.130;16.844;2023-06-19T11:38:42;1.05;;;0.93;;
77148;SDS011;66122;47.130;16.844;2023-06-19T11:48:51;1.30;;;1.13;;
77148;SDS011;66122;47.130;16.844;2023-06-19T11:59:08;1.00;;;0.90;;
77148;SDS011;66122;47.130;16.844;2023-06-19T12:09:11;1.50;;;1.40;;
77148;SDS011;66122;47.130;16.844;2023-06-19T12:19:14;1.50;;;1.40;;
77148;SDS011;66122;47.130;16.844;2023-06-19T12:29:22;1.25;;;1.15;;
77148;SDS011;66122;47.130;16.844;2023-06-19T12:39:24;2.07;;;1.60;;
77148;SDS011;66122;47.130;16.844;2023-06-19T12:49:28;1.50;;;1.17;;
77148;SDS011;66122;47.130;16.844;2023-06-19T12:59:31;1.60;;;1.50;;
77148;SDS011;66122;47.130;16.844;2023-06-19T13:09:35;1.47;;;1.37;;
77148;SDS011;66122;47.130;16.844;2023-06-19T13:19:38;1.60;;;1.50;;
77148;SDS011;66122;47.130;16.844;2023-06-19T13:29:40;3.43;;;2.17;;
77148;SDS011;66122;47.130;16.844;2023-06-19T13:39:43;1.37;;;1.20;;
77148;SDS011;66122;47.130;16.844;2023-06-19T13:49:46;1.90;;;1.48;;
77148;SDS011;66122;47.130;16.844;2023-06-19T13:59:49;1.70;;;1.57;;
77148;SDS011;66122;47.130;16.844;2023-06-19T14:09:51;2.00;;;1.90;;
77148;SDS011;66122;47.130;16.844;2023-06-19T14:19:55;1.23;;;1.13;;
77148;SDS011;66122;47.130;16.844;2023-06-19T14:29:59;1.67;;;1.40;;
77148;SDS011;66122;47.130;16.844;2023-06-19T14:40:01;1.38;;;1.25;;
77148;SDS011;66122;47.130;16.844;2023-06-19T14:50:05;2.20;;;2.00;;
77148;SDS011;66122;47.130;16.844;2023-06-19T15:00:08;1.63;;;1.53;;
77148;SDS011;66122;47.130;16.844;2023-06-19T15:10:12;1.80;;;1.70;;
77148;SDS011;66122;47.130;16.844;2023-06-19T15:20:14;1.33;;;1.13;;
77148;SDS011;66122;47.130;16.844;2023-06-19T15:30:18;1.42;;;1.33;;
77148;SDS011;66122;47.130;16.844;2023-06-19T15:40:21;1.53;;;1.43;;
77148;SDS011;66122;47.130;16.844;2023-06-19T15:50:24;1.37;;;1.27;;
77148;SDS011;66122;47.130;16.844;2023-06-19T16:00:27;1.40;;;1.30;;
77148;SDS011;66122;47.130;16.844;2023-06-19T16:10:29;1.80;;;1.70;;
77148;SDS011;66122;47.130;16.844;2023-06-19T16:20:32;1.75;;;1.30;;
77148;SDS011;66122;47.130;16.844;2023-06-19T16:30:35;1.40;;;1.30;;
77148;SDS011;66122;47.130;16.844;2023-06-19T16:40:37;1.17;;;1.00;;
77148;SDS011;66122;47.130;16.844;2023-06-19T16:50:40;1.40;;;1.30;;
77148;SDS011;66122;47.130;16.844;2023-06-19T17:00:42;1.33;;;1.23;;
77148;SDS011;66122;47.130;16.844;2023-06-19T17:10:45;1.63;;;1.52;;
77148;SDS011;66122;47.130;16.844;2023-06-19T17:20:48;1.20;;;1.10;;
77148;SDS011;66122;47.130;16.844;2023-06-19T17:30:50;1.13;;;1.03;;
77148;SDS011;66122;47.130;16.844;2023-06-19T17:40:53;2.60;;;1.50;;
77148;SDS011;66122;47.130;16.844;2023-06-19T17:50:55;0.97;;;0.87;;
77148;SDS011;66122;47.130;16.844;2023-06-19T18:00:58;0.85;;;0.82;;
77148;SDS011;66122;47.130;16.844;2023-06-19T18:11:00;1.33;;;1.23;;
77148;SDS011;66122;47.130;16.844;2023-06-19T18:21:04;1.07;;;0.87;;
77148;SDS011;66122;47.130;16.844;2023-06-19T18:31:07;1.17;;;1.08;;
77148;SDS011;66122;47.130;16.844;2023-06-19T18:41:09;1.07;;;0.97;;
77148;SDS011;66122;47.130;16.844;2023-06-19T18:51:12;2.20;;;1.03;;
77148;SDS011;66122;47.130;16.844;2023-06-19T19:01:14;1.70;;;0.98;;
77148;SDS011;66122;47.130;16.844;2023-06-19T19:11:17;0.70;;;0.70;;
77148;SDS011;66122;47.130;16.844;2023-06-19T19:21:20;1.20;;;0.70;;
77148;SDS011;66122;47.130;16.844;2023-06-19T19:31:23;1.70;;;0.97;;
77148;SDS011;66122;47.130;16.844;2023-06-19T19:41:25;0.70;;;0.60;;
77148;SDS011;66122;47.130;16.844;2023-06-19T19:51:28;0.80;;;0.63;;
77148;SDS011;66122;47.130;16.844;2023-06-19T20:01:31;1.00;;;0.90;;
77148;SDS011;66122;47.130;16.844;2023-06-19T20:11:33;1.27;;;0.67;;
77148;SDS011;66122;47.130;16.844;2023-06-19T20:21:36;0.53;;;0.30;;
77148;SDS011;66122;47.130;16.844;2023-06-19T20:31:39;0.93;;;0.75;;
77148;SDS011;66122;47.130;16.844;2023-06-19T20:41:41;0.60;;;0.50;;
77148;SDS011;66122;47.130;16.844;2023-06-19T20:51:50;0.90;;;0.63;;
77148;SDS011;66122;47.130;16.844;2023-06-19T21:01:54;0.60;;;0.50;;
77148;SDS011;66122;47.130;16.844;2023-06-19T21:12:02;0.70;;;0.43;;
77148;SDS011;66122;47.130;16.844;2023-06-19T21:22:04;0.80;;;0.60;;
77148;SDS011;66122;47.130;16.844;2023-06-19T21:32:07;1.15;;;0.82;;
77148;SDS011;66122;47.130;16.844;2023-06-19T21:42:10;0.50;;;0.40;;
77148;SDS011;66122;47.130;16.844;2023-06-19T21:52:12;0.60;;;0.47;;
77148;SDS011;66122;47.130;16.844;2023-06-19T22:02:15;0.50;;;0.35;;
77148;SDS011;66122;47.130;16.844;2023-06-19T22:12:17;0.40;;;0.20;;
77148;SDS011;66122;47.130;16.844;2023-06-19T22:22:20;0.40;;;0.30;;
77148;SDS011;66122;47.130;16.844;2023-06-19T22:32:22;3.30;;;1.40;;
77148;SDS011;66122;47.130;16.844;2023-06-19T22:42:25;0.30;;;0.20;;
77148;SDS011;66122;47.130;16.844;2023-06-19T22:52:27;0.70;;;0.60;;
77148;SDS011;66122;47.130;16.844;2023-06-19T23:02:30;1.57;;;0.63;;
77148;SDS011;66122;47.130;16.844;2023-06-19T23:12:33;0.80;;;0.80;;
77148;SDS011;66122;47.130;16.844;2023-06-19T23:22:36;0.40;;;0.30;;
77148;SDS011;66122;47.130;16.844;2023-06-19T23:32:39;0.40;;;0.30;;
77148;SDS011;66122;47.130;16.844;2023-06-19T23:42:41;0.40;;;0.30;;
77148;SDS011;66122;47.130;16.844;2023-06-19T23:52:44;1.63;;;0.80;;
